Sidney, IA

4:44 AM CST on February 09, 2016 (GMT -0600)
North Side of Town | | Change Station
CLOSE
Current Station
Personal Weather Station
Location: Thurman, IA
Elevation: 1007 ft
Nearby Weather Stations

Elev 1007 ft 40.82 °N, 95.75 °W | Updated 22 seconds ago

Partly Cloudy
Partly Cloudy
16.9 °F
Feels Like 7 °F
N
7.0
Wind Variable Wind from NE
Gusts 7.0 mph

Today
High -- | Low -- °F
--% Chance of Precip.
Yesterday
High -- | Low -- °F
Precip. -- in
Pressure 30.14 in
Visibility 10.0 miles
Clouds Mostly Cloudy 1500 ft
Overcast 2200 ft
Windchill 7 °F
Dew Point 9 °F
Humidity 72%
Rainfall 0.00 in
Snow Depth Not available.
7:24 AM 5:49 PM
New Moon, 1% visible
METAR KSDA 091035Z AUTO 35014G20KT 10SM BKN015 OVC022 M09/M12 A3014 RMK AO2
Pressure 30.14 in
Visibility 10.0 miles
Clouds Mostly Cloudy 1500 ft
Overcast 2200 ft
Windchill 7 °F
Dew Point 9 °F
Humidity 72%
Rainfall 0.00 in
Snow Depth Not available.
7:24 AM 5:49 PM
New Moon, 1% visible
METAR KSDA 091035Z AUTO 35014G20KT 10SM BKN015 OVC022 M09/M12 A3014 RMK AO2

10-Day Weather Forecast

Almanac

Astronomy

Feb. 09, 2016 Rise Set
Actual Time
Civil Twilight
Nautical Twilight
Astronomical Twilight
Moon
Length of Visible Light
Length of Day
Tomorrow will be .
, % of the Moon is Illuminated

Today's Extremes

State Highs State Lows

Community

WunderPhotos

Upload Photos

1,891,565 photos uploaded!

WunderBlog® & News

Nearby

Air Quality

  Air Quality AQ Index Pollutant
Not available.

Snow Depth

Station Depth Elevation

Earthquake Activity

City Distance Mag. Time & Date
Minimum magnitude displayed is 2.5.

Coastal Water Temperatures

Place Temperature

Stations

Nearby Weather Stations

Station Location Temp. Windchill Dew Point Humidity Wind Precip. Elev Updated Type
                   

Watches & Warnings

There are currently no watches in effect.